Grand Prairie, TX

9:21 AM CST on December 27, 2014 (GMT -0600)
Dallas-Fort Worth International | Change Station
CLOSE
Current Station
Airport
Location: Dallas/Ft Worth,
Elevation: 597 ft
Nearby Weather Stations

Elev 597 ft 32.90 °N, 97.02 °W | Updated 28 minutes ago

Overcast
Overcast
41 °F
Feels Like 31 °F
N
22
Wind Variable Wind from North

Today
High -- | Low -- °F
--% Chance of Precip.
Yesterday
High -- | Low -- °F
Precip. -- in
7:29 AM 5:29 PM
Waxing Crescent, 37% visible
Pressure 30.20 in
Visibility 10.0 miles
Clouds Few 1500 ft
Mostly Cloudy 4600 ft
Overcast 9000 ft
Windchill 31 °F
Dew Point 33 °F
Humidity 73%
Rainfall 0.00 in
Snow Depth Not available.
UV 0 out of 12
Pollen 10.70 out of 12
Air Quality Not available.
Flu Activity Not available.
METAR KDFW 271453Z 35019KT 10SM FEW015 BKN046 OVC090 05/01 A3021 RMK AO2 SLP227 T00500006 53015 $

More Conditions Fewer Conditions

Pressure 30.20 in
Visibility 10.0 miles
Clouds Few 1500 ft
Mostly Cloudy 4600 ft
Overcast 9000 ft
Windchill 31 °F
Dew Point 33 °F
Humidity 73%
Rainfall 0.00 in
Snow Depth Not available.
UV 0 out of 12
Pollen 10.70 out of 12
Air Quality Not available.
Flu Activity Not available.
METAR KDFW 271453Z 35019KT 10SM FEW015 BKN046 OVC090 05/01 A3021 RMK AO2 SLP227 T00500006 53015 $

More Conditions Fewer Conditions

Nowcast | as of 8:59 am CST on December 27, 2014

Widely scattered light rain showers will continue to progress northeastward across much of north and central Texas today. Total rainfall amounts will average less than one tenth of an inch for areas that do receive rain. Areas northwest of a Gainesville to Weatherford to Eastland line may see a mix of sleet and snow with mostly rain. No significant accumulations or impacts are expected. Elsewhere...skies will be cloudy with northwest winds at 15 to 20 mph. Temperatures will remain steady or fall slightly through the day...with most areas in the upper 30s and 40s.

×

10-Day Weather Forecast

Almanac

Astronomy

Dec. 27, 2014 Rise Set
Actual Time
Civil Twilight
Nautical Twilight
Astronomical Twilight
Moon
Length of Visible Light
Length of Day
Tomorrow will be .
, % of the Moon is Illuminated

Today's Extremes

State Highs State Lows

Community

WunderPhotos

Upload Photos

1,780,932 photos uploaded!

WunderBlogs® & News

Nearby

Air Quality

  Air Quality AQ Index Pollutant
Not available.

Snow Depth

Station Depth Elevation

Earthquake Activity

City Distance Mag. Time & Date
Minimum magnitude displayed is 2.5.

Coastal Water Temperatures

Place Temperature

Nearby Weather Stations